sensor_id;sensor_type;location;lat;lon;timestamp;P1;durP1;ratioP1;P2;durP2;ratioP2
572;SDS011;271;51.114;13.780;2024-03-25T00:00:50;16.20;;;2.15;;
572;SDS011;271;51.114;13.780;2024-03-25T00:03:36;16.20;;;2.25;;
572;SDS011;271;51.114;13.780;2024-03-25T00:06:24;16.85;;;2.78;;
572;SDS011;271;51.114;13.780;2024-03-25T00:09:11;18.85;;;2.45;;
572;SDS011;271;51.114;13.780;2024-03-25T00:11:59;16.92;;;2.33;;
572;SDS011;271;51.114;13.780;2024-03-25T00:14:48;18.15;;;2.40;;
572;SDS011;271;51.114;13.780;2024-03-25T00:17:36;18.10;;;2.47;;
572;SDS011;271;51.114;13.780;2024-03-25T00:20:23;17.00;;;2.10;;
572;SDS011;271;51.114;13.780;2024-03-25T00:23:10;16.60;;;2.30;;
572;SDS011;271;51.114;13.780;2024-03-25T00:25:57;17.85;;;2.50;;
572;SDS011;271;51.114;13.780;2024-03-25T00:28:45;16.67;;;2.47;;
572;SDS011;271;51.114;13.780;2024-03-25T00:31:33;17.35;;;2.70;;
572;SDS011;271;51.114;13.780;2024-03-25T00:34:21;16.73;;;1.80;;
572;SDS011;271;51.114;13.780;2024-03-25T00:37:08;17.58;;;2.35;;
572;SDS011;271;51.114;13.780;2024-03-25T00:39:56;16.45;;;2.00;;
572;SDS011;271;51.114;13.780;2024-03-25T00:42:43;16.80;;;1.70;;
572;SDS011;271;51.114;13.780;2024-03-25T00:45:32;17.40;;;2.22;;
572;SDS011;271;51.114;13.780;2024-03-25T00:48:20;16.70;;;2.22;;
572;SDS011;271;51.114;13.780;2024-03-25T00:51:08;19.55;;;2.30;;
572;SDS011;271;51.114;13.780;2024-03-25T00:53:55;16.50;;;2.00;;
572;SDS011;271;51.114;13.780;2024-03-25T00:56:42;17.95;;;2.50;;
572;SDS011;271;51.114;13.780;2024-03-25T00:59:30;17.63;;;2.55;;
572;SDS011;271;51.114;13.780;2024-03-25T01:02:17;16.63;;;1.92;;
572;SDS011;271;51.114;13.780;2024-03-25T01:05:06;16.60;;;1.92;;
572;SDS011;271;51.114;13.780;2024-03-25T01:07:54;17.30;;;2.40;;
572;SDS011;271;51.114;13.780;2024-03-25T01:10:41;16.85;;;2.20;;
572;SDS011;271;51.114;13.780;2024-03-25T01:13:29;17.75;;;2.63;;
572;SDS011;271;51.114;13.780;2024-03-25T01:16:16;17.60;;;2.63;;
572;SDS011;271;51.114;13.780;2024-03-25T01:19:03;17.52;;;2.83;;
572;SDS011;271;51.114;13.780;2024-03-25T01:21:52;17.90;;;2.60;;
572;SDS011;271;51.114;13.780;2024-03-25T01:24:39;17.05;;;2.60;;
572;SDS011;271;51.114;13.780;2024-03-25T01:27:26;17.15;;;3.03;;
572;SDS011;271;51.114;13.780;2024-03-25T01:30:14;17.23;;;2.90;;
572;SDS011;271;51.114;13.780;2024-03-25T01:33:00;17.63;;;2.72;;
572;SDS011;271;51.114;13.780;2024-03-25T01:35:48;16.90;;;2.40;;
572;SDS011;271;51.114;13.780;2024-03-25T01:38:36;17.50;;;2.67;;
572;SDS011;271;51.114;13.780;2024-03-25T01:41:24;16.80;;;2.25;;
572;SDS011;271;51.114;13.780;2024-03-25T01:44:11;17.20;;;2.20;;
572;SDS011;271;51.114;13.780;2024-03-25T01:46:58;18.13;;;3.03;;
572;SDS011;271;51.114;13.780;2024-03-25T01:49:45;17.58;;;2.33;;
572;SDS011;271;51.114;13.780;2024-03-25T01:52:34;17.17;;;2.15;;
572;SDS011;271;51.114;13.780;2024-03-25T01:55:22;17.27;;;2.67;;
572;SDS011;271;51.114;13.780;2024-03-25T01:58:13;18.27;;;3.30;;
572;SDS011;271;51.114;13.780;2024-03-25T02:01:00;18.30;;;3.17;;
572;SDS011;271;51.114;13.780;2024-03-25T02:03:49;17.42;;;3.20;;
572;SDS011;271;51.114;13.780;2024-03-25T02:06:36;17.35;;;3.38;;
572;SDS011;271;51.114;13.780;2024-03-25T02:09:25;17.90;;;3.40;;
572;SDS011;271;51.114;13.780;2024-03-25T02:12:15;17.60;;;3.20;;
572;SDS011;271;51.114;13.780;2024-03-25T02:15:04;17.60;;;2.85;;
572;SDS011;271;51.114;13.780;2024-03-25T02:17:51;17.80;;;3.22;;
572;SDS011;271;51.114;13.780;2024-03-25T02:20:39;18.10;;;3.40;;
572;SDS011;271;51.114;13.780;2024-03-25T02:23:26;18.70;;;4.03;;
572;SDS011;271;51.114;13.780;2024-03-25T02:26:15;20.30;;;4.55;;
572;SDS011;271;51.114;13.780;2024-03-25T02:29:03;19.27;;;4.55;;
572;SDS011;271;51.114;13.780;2024-03-25T02:31:50;18.13;;;3.83;;
572;SDS011;271;51.114;13.780;2024-03-25T02:34:39;19.42;;;4.10;;
572;SDS011;271;51.114;13.780;2024-03-25T02:37:30;18.27;;;3.92;;
572;SDS011;271;51.114;13.780;2024-03-25T02:40:19;20.02;;;4.65;;
572;SDS011;271;51.114;13.780;2024-03-25T02:43:11;18.70;;;4.28;;
572;SDS011;271;51.114;13.780;2024-03-25T02:45:58;19.35;;;3.60;;
572;SDS011;271;51.114;13.780;2024-03-25T02:48:45;19.35;;;4.05;;
572;SDS011;271;51.114;13.780;2024-03-25T02:51:32;19.05;;;4.38;;
572;SDS011;271;51.114;13.780;2024-03-25T02:54:20;18.70;;;3.92;;
572;SDS011;271;51.114;13.780;2024-03-25T02:57:07;17.95;;;3.65;;
572;SDS011;271;51.114;13.780;2024-03-25T02:59:56;19.02;;;4.10;;
572;SDS011;271;51.114;13.780;2024-03-25T03:02:43;19.65;;;4.50;;
572;SDS011;271;51.114;13.780;2024-03-25T03:05:30;21.08;;;5.40;;
572;SDS011;271;51.114;13.780;2024-03-25T03:08:17;20.52;;;5.60;;
572;SDS011;271;51.114;13.780;2024-03-25T03:11:05;20.52;;;5.30;;
572;SDS011;271;51.114;13.780;2024-03-25T03:13:52;21.10;;;5.35;;
572;SDS011;271;51.114;13.780;2024-03-25T03:16:41;19.45;;;4.80;;
572;SDS011;271;51.114;13.780;2024-03-25T03:19:27;21.88;;;4.90;;
572;SDS011;271;51.114;13.780;2024-03-25T03:22:15;18.52;;;4.50;;
572;SDS011;271;51.114;13.780;2024-03-25T03:25:02;19.55;;;4.72;;
572;SDS011;271;51.114;13.780;2024-03-25T03:27:50;21.92;;;5.45;;
572;SDS011;271;51.114;13.780;2024-03-25T03:30:37;20.00;;;5.50;;
572;SDS011;271;51.114;13.780;2024-03-25T03:33:26;21.27;;;4.80;;
572;SDS011;271;51.114;13.780;2024-03-25T03:36:13;20.88;;;5.43;;
572;SDS011;271;51.114;13.780;2024-03-25T03:39:02;23.40;;;5.22;;
572;SDS011;271;51.114;13.780;2024-03-25T03:41:49;22.35;;;5.18;;
572;SDS011;271;51.114;13.780;2024-03-25T03:44:36;19.25;;;4.97;;
572;SDS011;271;51.114;13.780;2024-03-25T03:47:23;21.25;;;4.50;;
572;SDS011;271;51.114;13.780;2024-03-25T03:50:13;19.25;;;3.95;;
572;SDS011;271;51.114;13.780;2024-03-25T03:52:59;19.05;;;4.45;;
572;SDS011;271;51.114;13.780;2024-03-25T03:55:52;19.88;;;3.60;;
572;SDS011;271;51.114;13.780;2024-03-25T03:58:39;21.33;;;4.38;;
572;SDS011;271;51.114;13.780;2024-03-25T04:01:27;22.77;;;5.03;;
572;SDS011;271;51.114;13.780;2024-03-25T04:04:15;20.38;;;3.70;;
572;SDS011;271;51.114;13.780;2024-03-25T04:07:03;18.00;;;3.10;;
572;SDS011;271;51.114;13.780;2024-03-25T04:09:51;19.00;;;3.22;;
572;SDS011;271;51.114;13.780;2024-03-25T04:12:39;17.50;;;3.30;;
572;SDS011;271;51.114;13.780;2024-03-25T04:15:27;18.40;;;2.80;;
572;SDS011;271;51.114;13.780;2024-03-25T04:18:14;19.70;;;3.22;;
572;SDS011;271;51.114;13.780;2024-03-25T04:21:01;18.90;;;3.17;;
572;SDS011;271;51.114;13.780;2024-03-25T04:23:50;17.75;;;3.25;;
572;SDS011;271;51.114;13.780;2024-03-25T04:26:37;18.88;;;3.70;;
572;SDS011;271;51.114;13.780;2024-03-25T04:29:24;19.38;;;3.85;;
572;SDS011;271;51.114;13.780;2024-03-25T04:32:12;20.10;;;3.60;;
572;SDS011;271;51.114;13.780;2024-03-25T04:34:58;18.30;;;2.80;;
572;SDS011;271;51.114;13.780;2024-03-25T04:37:46;21.75;;;3.60;;
572;SDS011;271;51.114;13.780;2024-03-25T04:40:34;19.70;;;2.78;;
572;SDS011;271;51.114;13.780;2024-03-25T04:43:21;18.40;;;2.90;;
572;SDS011;271;51.114;13.780;2024-03-25T04:46:08;17.80;;;2.80;;
572;SDS011;271;51.114;13.780;2024-03-25T04:48:54;17.80;;;2.67;;
572;SDS011;271;51.114;13.780;2024-03-25T04:51:41;18.27;;;3.15;;
572;SDS011;271;51.114;13.780;2024-03-25T04:54:28;17.48;;;2.97;;
572;SDS011;271;51.114;13.780;2024-03-25T04:57:16;18.38;;;3.33;;
572;SDS011;271;51.114;13.780;2024-03-25T05:00:03;16.40;;;2.00;;
572;SDS011;271;51.114;13.780;2024-03-25T05:02:51;17.00;;;2.63;;
572;SDS011;271;51.114;13.780;2024-03-25T05:05:38;18.80;;;2.53;;
572;SDS011;271;51.114;13.780;2024-03-25T05:08:24;17.95;;;2.47;;
572;SDS011;271;51.114;13.780;2024-03-25T05:11:11;18.67;;;2.67;;
572;SDS011;271;51.114;13.780;2024-03-25T05:13:59;18.55;;;2.95;;
572;SDS011;271;51.114;13.780;2024-03-25T05:16:46;17.30;;;2.70;;
572;SDS011;271;51.114;13.780;2024-03-25T05:19:32;18.10;;;2.60;;
572;SDS011;271;51.114;13.780;2024-03-25T05:22:19;18.38;;;3.20;;
572;SDS011;271;51.114;13.780;2024-03-25T05:25:06;19.35;;;2.75;;
572;SDS011;271;51.114;13.780;2024-03-25T05:27:53;17.23;;;2.65;;
572;SDS011;271;51.114;13.780;2024-03-25T05:30:41;18.20;;;2.78;;
572;SDS011;271;51.114;13.780;2024-03-25T05:33:28;18.20;;;2.78;;
572;SDS011;271;51.114;13.780;2024-03-25T05:36:15;18.15;;;3.05;;
572;SDS011;271;51.114;13.780;2024-03-25T05:39:02;17.23;;;2.97;;
572;SDS011;271;51.114;13.780;2024-03-25T05:41:49;17.40;;;3.10;;
572;SDS011;271;51.114;13.780;2024-03-25T05:44:35;18.48;;;3.40;;
572;SDS011;271;51.114;13.780;2024-03-25T05:47:23;19.45;;;3.55;;
572;SDS011;271;51.114;13.780;2024-03-25T05:50:10;20.13;;;2.80;;
572;SDS011;271;51.114;13.780;2024-03-25T05:52:57;19.98;;;2.90;;
572;SDS011;271;51.114;13.780;2024-03-25T05:55:44;17.65;;;2.92;;
572;SDS011;271;51.114;13.780;2024-03-25T05:58:30;17.88;;;2.92;;
572;SDS011;271;51.114;13.780;2024-03-25T06:01:17;18.00;;;3.15;;
572;SDS011;271;51.114;13.780;2024-03-25T06:04:05;18.67;;;2.70;;
572;SDS011;271;51.114;13.780;2024-03-25T06:06:52;21.00;;;3.00;;
572;SDS011;271;51.114;13.780;2024-03-25T06:09:39;17.60;;;3.40;;
572;SDS011;271;51.114;13.780;2024-03-25T06:12:25;18.50;;;2.72;;
572;SDS011;271;51.114;13.780;2024-03-25T06:15:12;19.35;;;3.03;;
572;SDS011;271;51.114;13.780;2024-03-25T06:17:59;17.63;;;3.10;;
572;SDS011;271;51.114;13.780;2024-03-25T06:20:47;17.23;;;3.10;;
572;SDS011;271;51.114;13.780;2024-03-25T06:23:34;17.80;;;3.55;;
572;SDS011;271;51.114;13.780;2024-03-25T06:26:21;19.23;;;3.83;;
572;SDS011;271;51.114;13.780;2024-03-25T06:29:08;18.60;;;4.15;;
572;SDS011;271;51.114;13.780;2024-03-25T06:31:54;18.50;;;3.47;;
572;SDS011;271;51.114;13.780;2024-03-25T06:34:59;17.70;;;3.55;;
572;SDS011;271;51.114;13.780;2024-03-25T06:37:48;18.70;;;3.85;;
572;SDS011;271;51.114;13.780;2024-03-25T06:40:35;17.83;;;3.50;;
572;SDS011;271;51.114;13.780;2024-03-25T06:43:22;17.90;;;3.30;;
572;SDS011;271;51.114;13.780;2024-03-25T06:46:08;18.45;;;3.08;;
572;SDS011;271;51.114;13.780;2024-03-25T06:48:55;18.00;;;3.08;;
572;SDS011;271;51.114;13.780;2024-03-25T06:51:42;17.90;;;3.47;;
572;SDS011;271;51.114;13.780;2024-03-25T06:54:30;17.42;;;3.05;;
572;SDS011;271;51.114;13.780;2024-03-25T06:57:17;17.77;;;2.83;;
572;SDS011;271;51.114;13.780;2024-03-25T07:00:04;16.23;;;2.10;;
572;SDS011;271;51.114;13.780;2024-03-25T07:02:52;16.73;;;2.47;;
572;SDS011;271;51.114;13.780;2024-03-25T07:05:39;17.23;;;2.30;;
572;SDS011;271;51.114;13.780;2024-03-25T07:08:25;16.50;;;2.22;;
572;SDS011;271;51.114;13.780;2024-03-25T07:11:14;17.48;;;2.10;;
572;SDS011;271;51.114;13.780;2024-03-25T07:14:00;17.08;;;2.10;;
572;SDS011;271;51.114;13.780;2024-03-25T07:16:47;19.45;;;2.58;;
572;SDS011;271;51.114;13.780;2024-03-25T07:19:34;16.52;;;2.13;;
572;SDS011;271;51.114;13.780;2024-03-25T07:22:20;18.25;;;2.30;;
572;SDS011;271;51.114;13.780;2024-03-25T07:25:07;19.88;;;2.10;;
572;SDS011;271;51.114;13.780;2024-03-25T07:27:56;18.55;;;2.10;;
572;SDS011;271;51.114;13.780;2024-03-25T07:30:43;17.00;;;2.40;;
572;SDS011;271;51.114;13.780;2024-03-25T07:33:30;19.27;;;2.38;;
572;SDS011;271;51.114;13.780;2024-03-25T07:36:16;17.52;;;2.35;;
572;SDS011;271;51.114;13.780;2024-03-25T07:39:03;16.98;;;1.95;;
572;SDS011;271;51.114;13.780;2024-03-25T07:41:50;19.13;;;3.67;;
572;SDS011;271;51.114;13.780;2024-03-25T07:44:38;19.60;;;2.30;;
572;SDS011;271;51.114;13.780;2024-03-25T07:47:25;17.38;;;1.75;;
572;SDS011;271;51.114;13.780;2024-03-25T07:50:11;17.15;;;2.60;;
572;SDS011;271;51.114;13.780;2024-03-25T07:52:58;16.98;;;2.78;;
572;SDS011;271;51.114;13.780;2024-03-25T07:55:45;18.15;;;2.60;;
572;SDS011;271;51.114;13.780;2024-03-25T07:58:31;18.63;;;2.35;;
572;SDS011;271;51.114;13.780;2024-03-25T08:01:19;17.58;;;2.53;;
572;SDS011;271;51.114;13.780;2024-03-25T08:04:06;17.05;;;2.45;;
572;SDS011;271;51.114;13.780;2024-03-25T08:06:53;17.23;;;2.45;;
572;SDS011;271;51.114;13.780;2024-03-25T08:09:40;18.27;;;2.20;;
572;SDS011;271;51.114;13.780;2024-03-25T08:12:26;19.30;;;2.90;;
572;SDS011;271;51.114;13.780;2024-03-25T08:15:13;19.17;;;2.70;;
572;SDS011;271;51.114;13.780;2024-03-25T08:18:01;17.90;;;3.10;;
572;SDS011;271;51.114;13.780;2024-03-25T08:20:48;17.75;;;3.00;;
572;SDS011;271;51.114;13.780;2024-03-25T08:23:35;18.10;;;2.50;;
572;SDS011;271;51.114;13.780;2024-03-25T08:26:21;17.20;;;2.50;;
572;SDS011;271;51.114;13.780;2024-03-25T08:29:08;17.10;;;2.40;;
572;SDS011;271;51.114;13.780;2024-03-25T08:31:55;18.35;;;2.72;;
572;SDS011;271;51.114;13.780;2024-03-25T08:34:43;19.08;;;3.08;;
572;SDS011;271;51.114;13.780;2024-03-25T08:37:29;17.92;;;2.75;;
572;SDS011;271;51.114;13.780;2024-03-25T08:40:16;18.92;;;3.22;;
572;SDS011;271;51.114;13.780;2024-03-25T08:43:03;17.00;;;2.65;;
572;SDS011;271;51.114;13.780;2024-03-25T08:45:50;17.58;;;2.80;;
572;SDS011;271;51.114;13.780;2024-03-25T08:48:36;18.17;;;2.70;;
572;SDS011;271;51.114;13.780;2024-03-25T08:51:24;19.13;;;2.80;;
572;SDS011;271;51.114;13.780;2024-03-25T08:54:11;16.77;;;2.50;;
572;SDS011;271;51.114;13.780;2024-03-25T08:56:58;17.13;;;2.45;;
572;SDS011;271;51.114;13.780;2024-03-25T08:59:44;18.48;;;2.92;;
572;SDS011;271;51.114;13.780;2024-03-25T09:02:31;17.15;;;2.42;;
572;SDS011;271;51.114;13.780;2024-03-25T09:05:18;18.30;;;2.78;;
572;SDS011;271;51.114;13.780;2024-03-25T09:08:06;17.00;;;2.28;;
572;SDS011;271;51.114;13.780;2024-03-25T09:10:53;16.80;;;2.53;;
572;SDS011;271;51.114;13.780;2024-03-25T09:13:48;18.55;;;3.10;;
572;SDS011;271;51.114;13.780;2024-03-25T09:16:35;18.05;;;2.90;;
572;SDS011;271;51.114;13.780;2024-03-25T09:19:22;17.42;;;3.08;;
572;SDS011;271;51.114;13.780;2024-03-25T09:22:12;18.15;;;2.92;;
572;SDS011;271;51.114;13.780;2024-03-25T09:25:00;18.40;;;2.72;;
572;SDS011;271;51.114;13.780;2024-03-25T09:27:47;17.30;;;2.60;;
572;SDS011;271;51.114;13.780;2024-03-25T09:30:34;17.95;;;3.38;;
572;SDS011;271;51.114;13.780;2024-03-25T09:33:22;18.48;;;2.95;;
572;SDS011;271;51.114;13.780;2024-03-25T09:36:08;18.73;;;2.90;;
572;SDS011;271;51.114;13.780;2024-03-25T09:38:55;16.45;;;2.88;;
572;SDS011;271;51.114;13.780;2024-03-25T09:41:43;17.42;;;2.90;;
572;SDS011;271;51.114;13.780;2024-03-25T09:44:31;16.98;;;2.80;;
572;SDS011;271;51.114;13.780;2024-03-25T09:47:18;16.77;;;3.00;;
572;SDS011;271;51.114;13.780;2024-03-25T09:50:06;16.92;;;2.85;;
572;SDS011;271;51.114;13.780;2024-03-25T09:52:54;17.13;;;2.60;;
572;SDS011;271;51.114;13.780;2024-03-25T09:55:41;16.55;;;2.42;;
572;SDS011;271;51.114;13.780;2024-03-25T09:58:30;16.08;;;3.00;;
572;SDS011;271;51.114;13.780;2024-03-25T10:01:17;17.30;;;2.20;;
572;SDS011;271;51.114;13.780;2024-03-25T10:04:04;16.20;;;2.75;;
572;SDS011;271;51.114;13.780;2024-03-25T10:06:51;17.98;;;2.60;;
572;SDS011;271;51.114;13.780;2024-03-25T10:09:38;16.30;;;2.20;;
572;SDS011;271;51.114;13.780;2024-03-25T10:12:25;15.63;;;1.70;;
572;SDS011;271;51.114;13.780;2024-03-25T10:15:18;16.80;;;2.22;;
572;SDS011;271;51.114;13.780;2024-03-25T10:18:05;15.52;;;1.98;;
572;SDS011;271;51.114;13.780;2024-03-25T10:20:52;15.65;;;1.88;;
572;SDS011;271;51.114;13.780;2024-03-25T10:23:40;17.20;;;2.00;;
572;SDS011;271;51.114;13.780;2024-03-25T10:26:27;15.93;;;2.03;;
572;SDS011;271;51.114;13.780;2024-03-25T10:29:14;15.50;;;1.80;;
572;SDS011;271;51.114;13.780;2024-03-25T10:32:02;15.77;;;1.80;;
572;SDS011;271;51.114;13.780;2024-03-25T10:34:49;17.93;;;1.90;;
572;SDS011;271;51.114;13.780;2024-03-25T10:37:38;15.87;;;1.50;;
572;SDS011;271;51.114;13.780;2024-03-25T10:40:26;15.93;;;1.83;;
572;SDS011;271;51.114;13.780;2024-03-25T10:43:14;15.47;;;1.80;;
572;SDS011;271;51.114;13.780;2024-03-25T10:46:03;15.00;;;1.50;;
572;SDS011;271;51.114;13.780;2024-03-25T10:48:54;15.93;;;1.90;;
572;SDS011;271;51.114;13.780;2024-03-25T10:51:47;16.13;;;1.83;;
572;SDS011;271;51.114;13.780;2024-03-25T10:54:36;14.90;;;1.80;;
572;SDS011;271;51.114;13.780;2024-03-25T10:57:24;15.87;;;2.03;;
572;SDS011;271;51.114;13.780;2024-03-25T11:00:12;14.87;;;2.00;;
572;SDS011;271;51.114;13.780;2024-03-25T11:03:00;15.10;;;2.10;;
572;SDS011;271;51.114;13.780;2024-03-25T11:05:49;17.40;;;2.60;;
572;SDS011;271;51.114;13.780;2024-03-25T11:08:36;15.93;;;2.20;;
572;SDS011;271;51.114;13.780;2024-03-25T11:11:23;15.73;;;2.70;;
572;SDS011;271;51.114;13.780;2024-03-25T11:14:16;19.37;;;2.50;;
572;SDS011;271;51.114;13.780;2024-03-25T11:17:03;15.90;;;2.00;;
572;SDS011;271;51.114;13.780;2024-03-25T11:20:06;16.38;;;2.28;;
572;SDS011;271;51.114;13.780;2024-03-25T11:22:57;15.07;;;1.77;;
572;SDS011;271;51.114;13.780;2024-03-25T11:25:43;15.00;;;2.37;;
572;SDS011;271;51.114;13.780;2024-03-25T11:28:41;16.13;;;2.03;;
572;SDS011;271;51.114;13.780;2024-03-25T11:31:28;15.50;;;2.45;;
572;SDS011;271;51.114;13.780;2024-03-25T11:34:18;15.68;;;2.40;;
572;SDS011;271;51.114;13.780;2024-03-25T11:37:05;16.70;;;2.70;;
572;SDS011;271;51.114;13.780;2024-03-25T11:40:01;17.00;;;2.50;;
572;SDS011;271;51.114;13.780;2024-03-25T11:42:49;16.00;;;2.43;;
572;SDS011;271;51.114;13.780;2024-03-25T11:45:36;15.23;;;2.10;;
572;SDS011;271;51.114;13.780;2024-03-25T11:48:23;17.47;;;2.60;;
572;SDS011;271;51.114;13.780;2024-03-25T11:51:11;15.90;;;3.13;;
572;SDS011;271;51.114;13.780;2024-03-25T11:53:58;15.57;;;2.27;;
572;SDS011;271;51.114;13.780;2024-03-25T11:56:46;15.87;;;2.50;;
572;SDS011;271;51.114;13.780;2024-03-25T11:59:33;16.40;;;2.10;;
572;SDS011;271;51.114;13.780;2024-03-25T12:02:20;16.37;;;2.10;;
572;SDS011;271;51.114;13.780;2024-03-25T12:05:07;16.67;;;2.67;;
572;SDS011;271;51.114;13.780;2024-03-25T12:07:55;15.80;;;2.40;;
572;SDS011;271;51.114;13.780;2024-03-25T12:10:41;20.10;;;4.40;;
572;SDS011;271;51.114;13.780;2024-03-25T12:13:48;17.10;;;3.20;;
572;SDS011;271;51.114;13.780;2024-03-25T12:16:34;15.73;;;2.97;;
572;SDS011;271;51.114;13.780;2024-03-25T12:19:24;15.67;;;2.33;;
572;SDS011;271;51.114;13.780;2024-03-25T12:22:10;14.90;;;2.20;;
572;SDS011;271;51.114;13.780;2024-03-25T12:24:57;15.43;;;1.93;;
572;SDS011;271;51.114;13.780;2024-03-25T12:27:46;15.90;;;2.50;;
572;SDS011;271;51.114;13.780;2024-03-25T12:30:34;16.10;;;2.40;;
572;SDS011;271;51.114;13.780;2024-03-25T12:33:39;15.53;;;1.90;;
572;SDS011;271;51.114;13.780;2024-03-25T12:36:26;15.60;;;2.40;;
572;SDS011;271;51.114;13.780;2024-03-25T12:39:17;15.60;;;1.80;;
572;SDS011;271;51.114;13.780;2024-03-25T12:42:04;15.10;;;1.90;;
572;SDS011;271;51.114;13.780;2024-03-25T12:44:51;16.10;;;2.20;;
572;SDS011;271;51.114;13.780;2024-03-25T12:47:40;15.20;;;1.70;;
572;SDS011;271;51.114;13.780;2024-03-25T12:50:26;19.33;;;2.43;;
572;SDS011;271;51.114;13.780;2024-03-25T12:53:16;14.98;;;1.90;;
572;SDS011;271;51.114;13.780;2024-03-25T12:56:04;15.93;;;2.00;;
572;SDS011;271;51.114;13.780;2024-03-25T12:58:50;16.00;;;1.90;;
572;SDS011;271;51.114;13.780;2024-03-25T13:01:37;16.30;;;2.20;;
572;SDS011;271;51.114;13.780;2024-03-25T13:04:25;14.87;;;1.60;;
572;SDS011;271;51.114;13.780;2024-03-25T13:07:12;15.97;;;1.70;;
572;SDS011;271;51.114;13.780;2024-03-25T13:09:59;14.80;;;1.40;;
572;SDS011;271;51.114;13.780;2024-03-25T13:12:46;15.87;;;2.40;;
572;SDS011;271;51.114;13.780;2024-03-25T13:15:32;16.30;;;2.20;;
572;SDS011;271;51.114;13.780;2024-03-25T13:18:19;18.13;;;4.37;;
572;SDS011;271;51.114;13.780;2024-03-25T13:21:07;17.30;;;2.78;;
572;SDS011;271;51.114;13.780;2024-03-25T13:23:54;28.27;;;9.73;;
572;SDS011;271;51.114;13.780;2024-03-25T13:26:41;19.00;;;4.17;;
572;SDS011;271;51.114;13.780;2024-03-25T13:29:27;17.20;;;2.60;;
572;SDS011;271;51.114;13.780;2024-03-25T13:32:14;23.13;;;4.97;;
572;SDS011;271;51.114;13.780;2024-03-25T13:35:01;21.23;;;5.10;;
572;SDS011;271;51.114;13.780;2024-03-25T13:37:49;19.77;;;3.77;;
572;SDS011;271;51.114;13.780;2024-03-25T13:40:36;17.50;;;2.83;;
572;SDS011;271;51.114;13.780;2024-03-25T13:43:22;18.73;;;3.70;;
572;SDS011;271;51.114;13.780;2024-03-25T13:46:09;15.80;;;1.97;;
572;SDS011;271;51.114;13.780;2024-03-25T13:48:56;15.70;;;1.83;;
572;SDS011;271;51.114;13.780;2024-03-25T13:51:43;15.17;;;1.73;;
572;SDS011;271;51.114;13.780;2024-03-25T13:54:31;15.93;;;1.70;;
572;SDS011;271;51.114;13.780;2024-03-25T13:57:18;15.37;;;1.60;;
572;SDS011;271;51.114;13.780;2024-03-25T14:00:05;16.80;;;2.20;;
572;SDS011;271;51.114;13.780;2024-03-25T14:02:53;15.80;;;1.63;;
572;SDS011;271;51.114;13.780;2024-03-25T14:05:40;16.90;;;2.40;;
572;SDS011;271;51.114;13.780;2024-03-25T14:08:27;14.83;;;1.87;;
572;SDS011;271;51.114;13.780;2024-03-25T14:11:15;15.40;;;1.70;;
572;SDS011;271;51.114;13.780;2024-03-25T14:14:01;15.20;;;1.77;;
572;SDS011;271;51.114;13.780;2024-03-25T14:16:50;15.40;;;1.53;;
572;SDS011;271;51.114;13.780;2024-03-25T14:19:37;15.63;;;2.20;;
572;SDS011;271;51.114;13.780;2024-03-25T14:22:30;16.80;;;1.70;;
572;SDS011;271;51.114;13.780;2024-03-25T14:25:16;17.00;;;2.10;;
572;SDS011;271;51.114;13.780;2024-03-25T14:28:05;16.47;;;2.00;;
572;SDS011;271;51.114;13.780;2024-03-25T14:30:52;15.20;;;2.00;;
572;SDS011;271;51.114;13.780;2024-03-25T14:33:38;16.37;;;2.30;;
572;SDS011;271;51.114;13.780;2024-03-25T14:36:25;16.60;;;2.10;;
572;SDS011;271;51.114;13.780;2024-03-25T14:39:12;15.00;;;1.83;;
572;SDS011;271;51.114;13.780;2024-03-25T14:41:58;21.00;;;2.30;;
572;SDS011;271;51.114;13.780;2024-03-25T14:44:46;15.47;;;2.10;;
572;SDS011;271;51.114;13.780;2024-03-25T14:47:33;17.40;;;2.33;;
572;SDS011;271;51.114;13.780;2024-03-25T14:50:20;15.57;;;2.30;;
572;SDS011;271;51.114;13.780;2024-03-25T14:53:07;15.70;;;2.10;;
572;SDS011;271;51.114;13.780;2024-03-25T14:55:53;15.53;;;2.07;;
572;SDS011;271;51.114;13.780;2024-03-25T14:58:40;17.50;;;2.43;;
572;SDS011;271;51.114;13.780;2024-03-25T15:01:28;14.73;;;2.00;;
572;SDS011;271;51.114;13.780;2024-03-25T15:04:15;15.60;;;2.10;;
572;SDS011;271;51.114;13.780;2024-03-25T15:07:02;21.20;;;4.27;;
572;SDS011;271;51.114;13.780;2024-03-25T15:09:49;18.17;;;2.40;;
572;SDS011;271;51.114;13.780;2024-03-25T15:12:35;15.73;;;3.00;;
572;SDS011;271;51.114;13.780;2024-03-25T15:15:25;16.47;;;2.10;;
572;SDS011;271;51.114;13.780;2024-03-25T15:18:13;15.30;;;1.90;;
572;SDS011;271;51.114;13.780;2024-03-25T15:21:00;15.57;;;2.73;;
572;SDS011;271;51.114;13.780;2024-03-25T15:27:21;15.10;;;1.80;;
572;SDS011;271;51.114;13.780;2024-03-25T15:30:08;15.23;;;1.93;;
572;SDS011;271;51.114;13.780;2024-03-25T15:33:17;16.47;;;2.17;;
572;SDS011;271;51.114;13.780;2024-03-25T15:36:04;15.52;;;2.20;;
572;SDS011;271;51.114;13.780;2024-03-25T15:38:51;16.88;;;2.08;;
572;SDS011;271;51.114;13.780;2024-03-25T15:41:37;17.67;;;2.42;;
572;SDS011;271;51.114;13.780;2024-03-25T15:44:24;15.40;;;2.07;;
572;SDS011;271;51.114;13.780;2024-03-25T15:47:42;19.73;;;2.20;;
572;SDS011;271;51.114;13.780;2024-03-25T15:53:06;15.40;;;2.00;;
572;SDS011;271;51.114;13.780;2024-03-25T15:55:53;16.80;;;2.17;;
572;SDS011;271;51.114;13.780;2024-03-25T15:58:40;15.88;;;2.17;;
572;SDS011;271;51.114;13.780;2024-03-25T16:01:26;15.73;;;1.87;;
572;SDS011;271;51.114;13.780;2024-03-25T16:04:13;17.37;;;1.50;;
572;SDS011;271;51.114;13.780;2024-03-25T16:07:00;15.60;;;1.90;;
572;SDS011;271;51.114;13.780;2024-03-25T16:09:48;15.55;;;1.77;;
572;SDS011;271;51.114;13.780;2024-03-25T16:12:35;15.83;;;2.00;;
572;SDS011;271;51.114;13.780;2024-03-25T16:15:22;15.68;;;1.88;;
572;SDS011;271;51.114;13.780;2024-03-25T16:18:08;18.20;;;2.22;;
572;SDS011;271;51.114;13.780;2024-03-25T16:20:55;16.47;;;2.10;;
572;SDS011;271;51.114;13.780;2024-03-25T16:23:42;15.00;;;1.80;;
572;SDS011;271;51.114;13.780;2024-03-25T16:26:30;18.98;;;2.40;;
572;SDS011;271;51.114;13.780;2024-03-25T16:29:17;17.93;;;2.23;;
572;SDS011;271;51.114;13.780;2024-03-25T16:32:04;18.60;;;1.90;;
572;SDS011;271;51.114;13.780;2024-03-25T16:34:50;15.40;;;1.80;;
572;SDS011;271;51.114;13.780;2024-03-25T16:37:37;14.80;;;1.42;;
572;SDS011;271;51.114;13.780;2024-03-25T16:40:24;16.40;;;2.43;;
572;SDS011;271;51.114;13.780;2024-03-25T16:43:12;16.53;;;2.53;;
572;SDS011;271;51.114;13.780;2024-03-25T16:46:05;16.38;;;2.22;;
572;SDS011;271;51.114;13.780;2024-03-25T16:48:52;16.42;;;2.17;;
572;SDS011;271;51.114;13.780;2024-03-25T16:51:39;15.90;;;2.63;;
572;SDS011;271;51.114;13.780;2024-03-25T16:54:26;16.02;;;2.28;;
572;SDS011;271;51.114;13.780;2024-03-25T16:57:12;15.18;;;2.20;;
572;SDS011;271;51.114;13.780;2024-03-25T17:00:00;16.77;;;2.13;;
572;SDS011;271;51.114;13.780;2024-03-25T17:02:48;16.75;;;2.20;;
572;SDS011;271;51.114;13.780;2024-03-25T17:05:35;15.48;;;1.90;;
572;SDS011;271;51.114;13.780;2024-03-25T17:08:22;15.40;;;1.90;;
572;SDS011;271;51.114;13.780;2024-03-25T17:11:09;15.15;;;2.00;;
572;SDS011;271;51.114;13.780;2024-03-25T17:13:55;15.55;;;1.98;;
572;SDS011;271;51.114;13.780;2024-03-25T17:16:43;15.35;;;2.15;;
572;SDS011;271;51.114;13.780;2024-03-25T17:19:30;15.98;;;2.08;;
572;SDS011;271;51.114;13.780;2024-03-25T17:22:17;16.42;;;2.28;;
572;SDS011;271;51.114;13.780;2024-03-25T17:25:04;15.40;;;2.00;;
572;SDS011;271;51.114;13.780;2024-03-25T17:27:51;19.17;;;2.97;;